createdAt,value
2018-01-04T00:01:59.877Z,7.32
2018-01-04T00:04:26.823Z,4.22
2018-01-04T00:06:53.800Z,9.52
2018-01-04T00:09:22.232Z,3.25
2018-01-04T00:11:50.090Z,5.90
2018-01-04T00:14:17.083Z,8.80
2018-01-04T00:16:44.009Z,3.47
2018-01-04T00:19:10.971Z,11.73
2018-01-04T00:21:37.876Z,8.98
2018-01-04T00:24:04.827Z,8.60
2018-01-04T00:26:31.748Z,14.55
2018-01-04T00:28:59.428Z,5.37
2018-01-04T00:31:26.342Z,6.60
2018-01-04T00:33:54.016Z,4.32
2018-01-04T00:36:21.699Z,6.20
2018-01-04T00:38:48.613Z,3.67
2018-01-04T00:41:16.305Z,6.62
2018-01-04T00:43:43.208Z,3.37
2018-01-04T00:46:10.132Z,9.52
2018-01-04T00:48:37.044Z,2.85
2018-01-04T00:51:03.964Z,10.70
2018-01-04T00:53:30.887Z,3.67
2018-01-04T00:55:58.589Z,10.95
2018-01-04T00:58:25.494Z,16.70
2018-01-04T01:00:52.472Z,18.95
2018-01-04T01:03:19.407Z,11.73
2018-01-04T01:05:46.344Z,5.07
2018-01-04T01:08:14.039Z,11.65
2018-01-04T01:10:40.944Z,3.72
2018-01-04T01:13:08.628Z,5.65
2018-01-04T01:15:35.544Z,5.70
2018-01-04T01:18:02.464Z,1.70
2018-01-04T01:20:29.375Z,2.30
2018-01-04T01:22:56.321Z,2.15
2018-01-04T01:25:23.236Z,5.15
2018-01-04T01:27:50.167Z,5.80
2018-01-04T01:30:17.085Z,7.05
2018-01-04T01:32:44.016Z,5.10
2018-01-04T01:35:10.985Z,14.20
2018-01-04T01:37:37.937Z,2.33
2018-01-04T01:40:04.879Z,8.15
2018-01-04T01:42:31.805Z,9.30
2018-01-04T01:44:58.741Z,0.85
2018-01-04T01:47:25.661Z,6.00
2018-01-04T01:49:52.566Z,4.53
2018-01-04T01:52:20.256Z,2.03
2018-01-04T01:54:47.167Z,10.10
2018-01-04T01:57:14.097Z,7.10
2018-01-04T01:59:41.023Z,13.20
2018-01-04T02:02:07.944Z,1.48
2018-01-04T02:04:34.861Z,2.20
2018-01-04T02:07:01.789Z,1.70
2018-01-04T02:09:29.476Z,1.10
2018-01-04T02:11:57.265Z,3.47
2018-01-04T02:14:24.176Z,7.43
2018-01-04T02:16:51.120Z,0.50
2018-01-04T02:19:30.714Z,0.37
2018-01-04T02:22:09.412Z,2.78
2018-01-04T02:24:48.299Z,1.70
2018-01-04T02:27:27.951Z,4.62
2018-01-04T02:30:07.702Z,3.28
2018-01-04T02:32:46.448Z,8.55
2018-01-04T02:38:22.049Z,0.30
2018-01-04T02:43:59.763Z,4.85
2018-01-04T02:46:26.708Z,0.80
2018-01-04T02:48:53.614Z,9.75
2018-01-04T02:51:20.527Z,2.65
2018-01-04T02:53:48.231Z,9.38
2018-01-04T02:56:15.143Z,10.00
2018-01-04T02:58:42.076Z,18.00
2018-01-04T03:01:09.752Z,4.03
2018-01-04T03:03:36.685Z,12.30
2018-01-04T03:06:04.354Z,4.22
2018-01-04T03:08:31.283Z,7.30
2018-01-04T03:10:58.956Z,6.07
2018-01-04T03:13:26.659Z,6.55
2018-01-04T03:15:53.566Z,3.00
2018-01-04T03:18:21.257Z,3.25
2018-01-04T03:20:48.181Z,10.43
2018-01-04T03:23:15.104Z,7.43
2018-01-04T03:25:42.786Z,13.82
2018-01-04T03:28:09.708Z,9.85
2018-01-04T03:30:36.623Z,9.73
2018-01-04T03:33:03.545Z,2.05
2018-01-04T03:35:30.449Z,7.62
2018-01-04T03:37:58.149Z,9.73
2018-01-04T03:40:25.067Z,6.97
2018-01-04T03:42:51.972Z,5.37
2018-01-04T03:45:18.934Z,8.48
2018-01-04T03:47:46.613Z,9.32
2018-01-04T03:50:13.542Z,3.37
2018-01-04T03:52:41.223Z,16.77
2018-01-04T03:55:08.152Z,2.05
2018-01-04T03:57:35.836Z,2.80
2018-01-04T04:00:02.757Z,5.78
2018-01-04T04:02:30.448Z,10.43
2018-01-04T04:04:57.383Z,9.23
2018-01-04T04:07:24.278Z,5.62
2018-01-04T04:09:51.201Z,9.70
2018-01-04T04:12:18.125Z,6.43
2018-01-04T04:14:45.058Z,12.63
2018-01-04T04:17:11.966Z,6.37
2018-01-04T04:19:38.883Z,21.90
2018-01-04T04:22:05.804Z,8.07
2018-01-04T04:24:32.762Z,5.15
2018-01-04T04:26:59.673Z,7.85
2018-01-04T04:29:26.600Z,7.95
2018-01-04T04:31:54.284Z,6.18
2018-01-04T04:34:21.249Z,15.45
2018-01-04T04:36:49.180Z,10.40
2018-01-04T04:39:16.862Z,8.43
2018-01-04T04:41:43.789Z,9.95
2018-01-04T04:44:11.482Z,13.00
2018-01-04T04:46:38.402Z,14.38
2018-01-04T04:49:05.348Z,4.30
2018-01-04T04:51:32.268Z,5.65
2018-01-04T04:53:59.203Z,8.85
2018-01-04T04:56:26.114Z,10.05
2018-01-04T04:58:53.049Z,5.72
2018-01-04T05:01:19.962Z,2.92
2018-01-04T05:03:47.661Z,8.60
2018-01-04T05:06:14.575Z,16.15
2018-01-04T05:08:43.265Z,9.27
2018-01-04T05:11:10.179Z,13.93
2018-01-04T05:13:37.123Z,4.55
2018-01-04T05:16:04.932Z,9.40
2018-01-04T05:18:31.847Z,10.55
2018-01-04T05:20:59.548Z,2.70
2018-01-04T05:23:26.453Z,9.65
2018-01-04T05:25:54.145Z,2.25
2018-01-04T05:28:21.059Z,10.65
2018-01-04T05:30:48.757Z,12.37
2018-01-04T05:33:15.696Z,6.40
2018-01-04T05:35:42.635Z,17.37
2018-01-04T05:38:09.527Z,7.82
2018-01-04T05:40:36.465Z,12.45
2018-01-04T05:43:03.375Z,9.07
2018-01-04T05:45:30.293Z,13.62
2018-01-04T05:47:57.971Z,6.10
2018-01-04T05:50:24.923Z,18.27
2018-01-04T05:52:51.824Z,4.43
2018-01-04T05:55:19.717Z,6.12
2018-01-04T05:57:47.393Z,7.30
2018-01-04T06:00:14.342Z,3.05
2018-01-04T06:02:41.288Z,8.57
2018-01-04T06:05:08.244Z,8.05
2018-01-04T06:07:35.173Z,13.07
2018-01-04T06:10:02.114Z,8.52
2018-01-04T06:12:29.034Z,5.57
2018-01-04T06:14:56.729Z,9.45
2018-01-04T06:17:23.653Z,5.03
2018-01-04T06:19:51.329Z,10.05
2018-01-04T06:22:18.265Z,12.93
2018-01-04T06:24:45.192Z,8.20
2018-01-04T06:27:12.895Z,10.57
2018-01-04T06:29:39.796Z,5.60
2018-01-04T06:32:07.499Z,17.85
2018-01-04T06:34:34.395Z,9.60
2018-01-04T06:37:01.316Z,11.45
2018-01-04T06:39:28.216Z,9.23
2018-01-04T06:41:55.135Z,12.98
2018-01-04T06:44:22.804Z,11.40
2018-01-04T06:46:49.733Z,16.48
2018-01-04T06:49:16.657Z,7.07
2018-01-04T06:51:43.584Z,8.38
2018-01-04T06:54:10.490Z,13.20
2018-01-04T06:56:37.417Z,9.15
2018-01-04T06:59:05.123Z,6.87
2018-01-04T07:01:32.057Z,6.80
2018-01-04T07:03:58.983Z,7.70
2018-01-04T07:06:25.897Z,12.35
2018-01-04T07:08:52.816Z,11.12
2018-01-04T07:11:19.733Z,8.32
2018-01-04T07:13:47.708Z,10.23
2018-01-04T07:16:14.631Z,10.80
2018-01-04T07:18:41.553Z,6.12
2018-01-04T07:21:08.481Z,9.45
2018-01-04T07:23:36.283Z,5.20
2018-01-04T07:26:04.345Z,14.20
2018-01-04T07:28:31.260Z,8.18
2018-01-04T07:30:58.226Z,8.30
2018-01-04T07:33:25.200Z,9.68
2018-01-04T07:35:52.115Z,12.20
2018-01-04T07:38:19.025Z,5.87
2018-01-04T07:40:47.743Z,6.85
2018-01-04T07:43:14.684Z,8.95
2018-01-04T07:45:41.593Z,6.47
2018-01-04T07:48:08.531Z,8.02
2018-01-04T07:50:35.457Z,11.30
2018-01-04T07:53:02.380Z,11.12
2018-01-04T07:55:29.305Z,15.02
2018-01-04T07:57:56.208Z,6.90
2018-01-04T08:00:23.150Z,11.23
2018-01-04T08:02:50.084Z,7.53
2018-01-04T08:05:16.996Z,17.83
2018-01-04T08:07:43.929Z,6.15
2018-01-04T08:10:10.841Z,10.48
2018-01-04T08:12:38.523Z,7.40
2018-01-04T08:15:05.428Z,11.73
2018-01-04T08:17:32.352Z,10.95
2018-01-04T08:20:00.025Z,9.05
2018-01-04T08:22:26.965Z,8.50
2018-01-04T08:24:53.889Z,5.70
2018-01-04T08:27:20.824Z,21.67
2018-01-04T08:29:48.492Z,15.63
2018-01-04T08:32:15.416Z,4.07
2018-01-04T08:34:43.080Z,5.35
2018-01-04T08:37:10.769Z,9.50
2018-01-04T08:39:37.672Z,9.90
2018-01-04T08:42:05.560Z,10.60
2018-01-04T08:44:33.225Z,7.62
2018-01-04T08:47:00.906Z,11.70
2018-01-04T08:49:27.813Z,13.75
2018-01-04T08:51:54.720Z,4.12
2018-01-04T08:54:21.628Z,11.15
2018-01-04T08:56:48.544Z,6.43
2018-01-04T08:59:15.444Z,10.80
2018-01-04T09:01:42.364Z,7.10
2018-01-04T09:04:09.268Z,3.28
2018-01-04T09:06:36.173Z,5.97
2018-01-04T09:09:03.087Z,6.53
2018-01-04T09:11:29.992Z,15.80
2018-01-04T09:13:56.908Z,11.35
2018-01-04T09:16:23.813Z,11.55
2018-01-04T09:18:51.506Z,4.10
2018-01-04T09:21:18.408Z,9.38
2018-01-04T09:23:46.096Z,11.05
2018-01-04T09:26:13.005Z,7.20
2018-01-04T09:28:39.980Z,11.12
2018-01-04T09:31:06.851Z,12.80
2018-01-04T09:33:33.792Z,7.40
2018-01-04T09:36:01.714Z,7.50
2018-01-04T09:38:29.399Z,10.50
2018-01-04T09:40:56.307Z,13.52
2018-01-04T09:43:23.228Z,15.40
2018-01-04T09:45:50.134Z,13.98
2018-01-04T09:48:17.081Z,9.95
2018-01-04T09:50:44.935Z,8.10
2018-01-04T09:53:11.859Z,6.37
2018-01-04T09:55:38.824Z,13.15
2018-01-04T09:58:05.744Z,4.70
2018-01-04T10:00:32.656Z,6.85
2018-01-04T10:02:59.614Z,5.10
2018-01-04T10:05:26.582Z,9.35
2018-01-04T10:07:53.462Z,11.85
2018-01-04T10:10:20.408Z,8.48
2018-01-04T10:12:47.309Z,11.52
2018-01-04T10:15:14.228Z,7.78
2018-01-04T10:17:41.359Z,3.62
2018-01-04T10:20:08.257Z,8.23
2018-01-04T10:22:35.181Z,3.55
2018-01-04T10:25:02.872Z,10.38
2018-01-04T10:27:29.792Z,5.85
2018-01-04T10:29:58.492Z,11.75
2018-01-04T10:32:25.393Z,7.32
2018-01-04T10:34:52.318Z,10.98
2018-01-04T10:37:19.218Z,7.30
2018-01-04T10:39:46.142Z,12.15
2018-01-04T10:42:13.844Z,6.93
2018-01-04T10:44:40.764Z,8.68
2018-01-04T10:47:07.664Z,8.35
2018-01-04T10:49:34.596Z,12.65
2018-01-04T10:52:01.500Z,22.87
2018-01-04T10:54:28.420Z,5.65
2018-01-04T10:56:55.328Z,5.97
2018-01-04T10:59:22.254Z,13.90
2018-01-04T11:01:49.156Z,5.85
2018-01-04T11:04:16.081Z,7.53
2018-01-04T11:06:43.027Z,7.95
2018-01-04T11:09:09.949Z,11.02
2018-01-04T11:11:36.861Z,7.93
2018-01-04T11:14:03.783Z,10.73
2018-01-04T11:16:30.697Z,8.25
2018-01-04T11:18:58.404Z,6.32
2018-01-04T11:21:25.309Z,13.60
2018-01-04T11:23:53.008Z,13.55
2018-01-04T11:26:19.907Z,4.70
2018-01-04T11:28:48.827Z,9.32
2018-01-04T11:31:15.753Z,3.40
2018-01-04T11:33:42.680Z,7.30
2018-01-04T11:36:09.601Z,6.87
2018-01-04T11:38:36.512Z,4.55
2018-01-04T11:41:03.444Z,8.77
2018-01-04T11:43:30.344Z,4.87
2018-01-04T11:45:58.045Z,6.05
2018-01-04T11:48:25.725Z,17.77
2018-01-04T11:50:52.657Z,14.80
2018-01-04T11:53:19.561Z,7.32
2018-01-04T11:55:46.504Z,3.22
2018-01-04T11:58:13.417Z,8.70
2018-01-04T12:00:40.336Z,6.10
2018-01-04T12:03:07.245Z,7.35
2018-01-04T12:05:34.193Z,4.85
2018-01-04T12:08:01.121Z,4.10
2018-01-04T12:10:28.036Z,4.03
2018-01-04T12:12:54.944Z,12.05
2018-01-04T12:15:22.632Z,3.60
2018-01-04T12:17:49.536Z,8.40
2018-01-04T12:20:16.452Z,6.97
2018-01-04T12:22:43.352Z,8.20
2018-01-04T12:25:10.268Z,4.22
2018-01-04T12:27:37.180Z,6.78
2018-01-04T12:30:04.124Z,8.60
2018-01-04T12:32:31.032Z,8.05
2018-01-04T12:34:57.928Z,6.43
2018-01-04T12:37:24.847Z,6.05
2018-01-04T12:39:52.534Z,12.45
2018-01-04T12:42:20.340Z,8.38
2018-01-04T12:44:47.257Z,9.73
2018-01-04T12:47:14.166Z,10.52
2018-01-04T12:49:41.851Z,6.22
2018-01-04T12:52:08.754Z,9.73
2018-01-04T12:54:35.684Z,9.60
2018-01-04T12:57:02.609Z,7.95
2018-01-04T12:59:29.535Z,4.20
2018-01-04T13:01:56.432Z,5.20
2018-01-04T13:04:23.348Z,3.08
2018-01-04T13:06:50.243Z,6.80
2018-01-04T13:09:17.180Z,6.35
2018-01-04T13:11:44.087Z,3.78
2018-01-04T13:14:10.989Z,12.07
2018-01-04T13:16:38.673Z,8.73
2018-01-04T13:19:05.584Z,8.60
2018-01-04T13:21:32.518Z,5.28
2018-01-04T13:23:59.424Z,6.07
2018-01-04T13:26:26.345Z,7.72
2018-01-04T13:28:53.254Z,9.45
2018-01-04T13:31:20.176Z,7.12
2018-01-04T13:33:47.120Z,9.15
2018-01-04T13:36:14.068Z,11.88
2018-01-04T13:38:40.981Z,10.43
2018-01-04T13:41:07.904Z,15.48
2018-01-04T13:43:34.819Z,11.25
2018-01-04T13:46:02.504Z,3.40
2018-01-04T13:48:29.412Z,5.32
2018-01-04T13:50:56.336Z,9.68
2018-01-04T13:53:23.262Z,11.15
2018-01-04T13:55:50.221Z,3.15
2018-01-04T13:58:17.114Z,7.12
2018-01-04T14:00:44.043Z,6.43
2018-01-04T14:03:10.953Z,19.42
2018-01-04T14:05:37.885Z,9.68
2018-01-04T14:08:04.787Z,5.10
2018-01-04T14:10:31.694Z,8.50
2018-01-04T14:12:58.618Z,6.18
2018-01-04T14:15:25.537Z,10.63
2018-01-04T14:17:52.461Z,11.93
2018-01-04T14:20:19.365Z,8.98
2018-01-04T14:22:46.308Z,7.80
2018-01-04T14:25:13.208Z,13.38
2018-01-04T14:27:40.124Z,20.37
2018-01-04T14:30:07.796Z,12.07
2018-01-04T14:32:35.485Z,9.15
2018-01-04T14:35:02.392Z,17.17
2018-01-04T14:37:30.084Z,13.05
2018-01-04T14:39:56.992Z,10.50
2018-01-04T14:42:23.914Z,14.87
2018-01-04T14:44:50.823Z,10.02
2018-01-04T14:47:17.755Z,14.13
2018-01-04T14:49:44.660Z,9.63
2018-01-04T14:52:11.617Z,12.20
2018-01-04T14:54:39.303Z,12.07
2018-01-04T14:57:06.241Z,8.70
2018-01-04T14:59:33.918Z,17.15
2018-01-04T15:02:00.833Z,12.68
2018-01-04T15:04:28.547Z,10.65
2018-01-04T15:06:55.454Z,5.57
2018-01-04T15:09:23.185Z,14.15
2018-01-04T15:11:50.096Z,10.90
2018-01-04T15:14:16.996Z,16.90
2018-01-04T15:16:44.685Z,8.70
2018-01-04T15:19:11.604Z,6.80
2018-01-04T15:21:39.283Z,18.05
2018-01-04T15:24:06.208Z,15.75
2018-01-04T15:26:33.899Z,14.23
2018-01-04T15:29:00.819Z,14.52
2018-01-04T15:31:28.489Z,19.45
2018-01-04T15:33:55.408Z,17.65
2018-01-04T15:36:22.325Z,15.40
2018-01-04T15:38:49.246Z,20.62
2018-01-04T15:41:16.152Z,25.62
2018-01-04T15:43:43.097Z,13.65
2018-01-04T15:46:10.770Z,14.82
2018-01-04T15:48:38.455Z,11.70
2018-01-04T15:51:05.365Z,10.38
2018-01-04T15:53:33.067Z,7.95
2018-01-04T15:55:59.972Z,21.98
2018-01-04T15:58:27.673Z,22.55
2018-01-04T16:00:54.592Z,11.35
2018-01-04T16:03:21.525Z,17.80
2018-01-04T16:05:49.200Z,16.55
2018-01-04T16:08:16.124Z,11.15
2018-01-04T16:10:43.796Z,20.92
2018-01-04T16:13:11.476Z,14.82
2018-01-04T16:15:38.380Z,11.73
2018-01-04T16:18:05.300Z,20.60
2018-01-04T16:20:34.232Z,19.73
2018-01-04T16:23:01.940Z,18.62
2018-01-04T16:25:28.860Z,14.02
2018-01-04T16:27:55.781Z,17.02
2018-01-04T16:30:22.695Z,22.62
2018-01-04T16:32:49.625Z,16.10
2018-01-04T16:35:16.534Z,22.42
2018-01-04T16:37:44.228Z,17.25
2018-01-04T16:40:11.152Z,20.77
2018-01-04T16:42:38.077Z,27.55
2018-01-04T16:45:04.999Z,20.35
2018-01-04T16:47:31.964Z,24.40
2018-01-04T16:49:58.864Z,19.80
2018-01-04T16:52:26.565Z,21.42
2018-01-04T16:54:53.476Z,16.37
2018-01-04T16:57:20.378Z,19.62
2018-01-04T16:59:47.296Z,18.35
2018-01-04T17:02:14.220Z,24.70
2018-01-04T17:04:41.156Z,21.75
2018-01-04T17:07:08.069Z,28.10
2018-01-04T17:09:34.989Z,18.70
2018-01-04T17:12:01.907Z,31.75
2018-01-04T17:14:28.835Z,24.52
2018-01-04T17:16:55.765Z,19.83
2018-01-04T17:19:22.696Z,23.35
2018-01-04T17:21:49.620Z,19.77
2018-01-04T17:24:16.610Z,22.92
2018-01-04T17:26:43.555Z,23.42
2018-01-04T17:29:11.380Z,24.35
2018-01-04T17:31:38.297Z,27.85
2018-01-04T17:34:08.945Z,35.28
2018-01-04T17:36:36.643Z,34.35
2018-01-04T17:39:03.601Z,33.22
2018-01-04T17:41:30.507Z,26.02
2018-01-04T17:43:57.449Z,34.40
2018-01-04T17:46:24.385Z,37.53
2018-01-04T17:48:51.309Z,31.20
2018-01-04T17:51:18.216Z,38.45
2018-01-04T17:53:45.132Z,50.53
2018-01-04T17:56:12.079Z,70.62
2018-01-04T17:58:40.497Z,51.50
2018-01-04T18:01:08.534Z,59.45
2018-01-04T18:03:35.440Z,51.00
2018-01-04T18:06:04.317Z,34.10
2018-01-04T18:08:31.241Z,45.72
2018-01-04T18:11:00.102Z,44.90
2018-01-04T18:13:27.032Z,64.30
2018-01-04T18:15:53.952Z,43.78
2018-01-04T18:18:21.649Z,53.70
2018-01-04T18:20:48.564Z,46.63
2018-01-04T18:23:15.548Z,55.30
2018-01-04T18:25:43.220Z,57.03
2018-01-04T18:28:10.140Z,40.60
2018-01-04T18:30:37.052Z,45.40
2018-01-04T18:33:04.008Z,56.28
2018-01-04T18:35:30.919Z,55.50
2018-01-04T18:37:57.828Z,40.97
2018-01-04T18:40:24.756Z,44.70
2018-01-04T18:42:51.671Z,58.47
2018-01-04T18:45:18.595Z,65.60
2018-01-04T18:47:46.268Z,73.15
2018-01-04T18:50:13.960Z,47.62
2018-01-04T18:52:40.896Z,62.83
2018-01-04T18:55:07.812Z,46.33
2018-01-04T18:57:35.505Z,49.95
2018-01-04T19:00:02.426Z,53.70
2018-01-04T19:02:29.327Z,54.33
2018-01-04T19:04:56.265Z,53.85
2018-01-04T19:07:23.178Z,70.12
2018-01-04T19:09:50.112Z,74.97
2018-01-04T19:12:17.024Z,92.20
2018-01-04T19:14:43.953Z,83.95
2018-01-04T19:17:10.881Z,70.12
2018-01-04T19:19:37.824Z,70.28
2018-01-04T19:22:04.742Z,57.95
2018-01-04T19:24:31.670Z,60.50
2018-01-04T19:26:58.604Z,45.85
2018-01-04T19:29:26.292Z,60.67
2018-01-04T19:31:53.213Z,54.28
2018-01-04T19:34:20.138Z,57.88
2018-01-04T19:36:47.061Z,81.07
2018-01-04T19:39:14.773Z,65.60
2018-01-04T19:41:41.692Z,82.18
2018-01-04T19:44:09.377Z,74.80
2018-01-04T19:46:37.055Z,74.85
2018-01-04T19:49:03.976Z,85.50
2018-01-04T19:51:30.884Z,60.97
2018-01-04T19:53:58.572Z,67.55
2018-01-04T19:56:25.481Z,62.55
2018-01-04T19:58:52.411Z,75.72
2018-01-04T20:01:19.332Z,74.18
2018-01-04T20:03:46.256Z,62.92
2018-01-04T20:06:13.174Z,70.55
2018-01-04T20:08:40.113Z,75.95
2018-01-04T20:11:07.020Z,59.63
2018-01-04T20:13:33.941Z,71.60
2018-01-04T20:16:01.618Z,60.92
2018-01-04T20:18:28.556Z,60.90
2018-01-04T20:20:55.485Z,65.50
2018-01-04T20:23:23.176Z,66.10
2018-01-04T20:25:50.996Z,86.57
2018-01-04T20:28:17.916Z,66.72
2018-01-04T20:30:44.832Z,74.90
2018-01-04T20:33:11.767Z,58.55
2018-01-04T20:35:38.703Z,64.95
2018-01-04T20:38:06.409Z,58.13
2018-01-04T20:40:33.320Z,50.90
2018-01-04T20:43:01.017Z,76.43
2018-01-04T20:45:27.927Z,79.47
2018-01-04T20:47:55.609Z,66.62
2018-01-04T20:50:22.552Z,64.50
2018-01-04T20:52:49.485Z,64.57
2018-01-04T20:55:17.173Z,58.63
2018-01-04T20:57:45.029Z,53.00
2018-01-04T21:00:12.714Z,74.60
2018-01-04T21:02:39.644Z,59.08
2018-01-04T21:05:07.316Z,54.95
2018-01-04T21:07:35.000Z,48.58
2018-01-04T21:10:01.922Z,49.65
2018-01-04T21:12:29.797Z,45.15
2018-01-04T21:14:56.741Z,53.63
2018-01-04T21:17:23.672Z,46.92
2018-01-04T21:19:50.581Z,47.30
2018-01-04T21:22:17.510Z,50.67
2018-01-04T21:24:45.201Z,65.75
2018-01-04T21:27:12.156Z,51.15
2018-01-04T21:29:39.108Z,44.45
2018-01-04T21:32:06.091Z,45.97
2018-01-04T21:34:34.573Z,71.57
2018-01-04T21:37:02.285Z,49.53
2018-01-04T21:39:29.213Z,43.70
2018-01-04T21:41:56.169Z,45.50
2018-01-04T21:44:23.113Z,42.97
2018-01-04T21:46:50.045Z,41.63
2018-01-04T21:49:17.005Z,40.58
2018-01-04T21:51:43.934Z,31.92
2018-01-04T21:54:11.630Z,41.97
2018-01-04T21:56:39.318Z,38.03
2018-01-04T21:59:06.256Z,35.22
2018-01-04T22:01:33.171Z,31.85
2018-01-04T22:04:00.092Z,41.40
2018-01-04T22:06:27.764Z,48.45
2018-01-04T22:08:55.456Z,35.80
2018-01-04T22:11:23.308Z,37.35
2018-01-04T22:13:50.224Z,40.08
2018-01-04T22:16:17.136Z,37.10
2018-01-04T22:18:44.271Z,38.42
2018-01-04T22:21:11.245Z,42.38
2018-01-04T22:23:39.180Z,49.17
2018-01-04T22:26:06.105Z,50.15
2018-01-04T22:28:33.800Z,50.53
2018-01-04T22:31:00.740Z,48.03
2018-01-04T22:33:28.616Z,59.97
2018-01-04T22:35:55.528Z,49.97
2018-01-04T22:38:23.221Z,37.75
2018-01-04T22:40:50.152Z,54.25
2018-01-04T22:43:17.076Z,48.45
2018-01-04T22:45:44.758Z,43.40
2018-01-04T22:48:11.678Z,46.03
2018-01-04T22:50:39.348Z,36.92
2018-01-04T22:53:07.077Z,37.80
2018-01-04T22:55:34.020Z,39.40
2018-01-04T22:58:00.967Z,27.83
2018-01-04T23:00:27.883Z,52.40
2018-01-04T23:02:54.825Z,35.17
2018-01-04T23:05:21.744Z,40.12
2018-01-04T23:07:48.676Z,35.30
2018-01-04T23:10:15.590Z,27.77
2018-01-04T23:12:42.521Z,37.85
2018-01-04T23:15:09.433Z,37.05
2018-01-04T23:17:37.124Z,46.37
2018-01-04T23:20:04.040Z,41.95
2018-01-04T23:22:31.757Z,33.20
2018-01-04T23:24:58.685Z,32.33
2018-01-04T23:27:25.606Z,31.95
2018-01-04T23:29:52.528Z,39.17
2018-01-04T23:32:20.228Z,33.45
2018-01-04T23:34:47.137Z,36.30
2018-01-04T23:37:14.824Z,32.25
2018-01-04T23:39:41.731Z,38.58
2018-01-04T23:42:08.648Z,31.50
2018-01-04T23:44:35.552Z,38.35
2018-01-04T23:47:02.477Z,30.27
2018-01-04T23:49:30.364Z,40.00
2018-01-04T23:51:57.328Z,40.78
2018-01-04T23:54:24.244Z,33.22
2018-01-04T23:56:51.922Z,33.40
2018-01-04T23:59:18.874Z,29.48
